createdAt,value
2022-10-28T00:00:37.484Z,99.99
2022-10-28T00:01:37.512Z,99.99
2022-10-28T00:02:37.403Z,99.99
2022-10-28T00:03:37.334Z,99.99
2022-10-28T00:04:37.282Z,99.99
2022-10-28T00:05:37.254Z,99.99
2022-10-28T00:06:37.179Z,99.99
2022-10-28T00:07:37.123Z,99.99
2022-10-28T00:08:37.076Z,99.99
2022-10-28T00:09:37.021Z,99.99
2022-10-28T00:10:36.973Z,99.99
2022-10-28T00:11:36.938Z,99.99
2022-10-28T00:12:36.868Z,99.99
2022-10-28T00:13:36.816Z,99.99
2022-10-28T00:14:37.497Z,99.99
2022-10-28T00:15:36.717Z,99.99
2022-10-28T00:16:36.687Z,99.99
2022-10-28T00:17:36.613Z,99.99
2022-10-28T00:18:36.563Z,99.99
2022-10-28T00:19:36.507Z,99.99
2022-10-28T00:20:36.457Z,99.99
2022-10-28T00:21:36.448Z,99.99
2022-10-28T00:22:36.379Z,99.99
2022-10-28T00:23:36.300Z,99.99
2022-10-28T00:24:36.251Z,99.99
2022-10-28T00:25:36.204Z,99.99
2022-10-28T00:26:36.149Z,99.99
2022-10-28T00:27:36.098Z,99.99
2022-10-28T00:28:36.071Z,99.99
2022-10-28T00:29:35.992Z,99.99
2022-10-28T00:30:35.948Z,99.99
2022-10-28T00:31:35.895Z,99.99
2022-10-28T00:32:35.841Z,99.99
2022-10-28T00:33:35.785Z,99.99
2022-10-28T00:34:35.757Z,99.99
2022-10-28T00:35:35.683Z,99.99
2022-10-28T00:36:35.637Z,99.99
2022-10-28T00:37:35.585Z,99.99
2022-10-28T00:38:35.530Z,99.99
2022-10-28T00:39:35.515Z,99.99
2022-10-28T00:40:35.428Z,99.99
2022-10-28T00:41:35.374Z,99.99
2022-10-28T00:42:35.323Z,99.99
2022-10-28T00:43:35.272Z,99.99
2022-10-28T00:44:35.224Z,99.99
2022-10-28T00:45:35.186Z,99.99
2022-10-28T00:46:35.117Z,99.99
2022-10-28T00:47:35.066Z,99.99
2022-10-28T00:48:35.018Z,99.99
2022-10-28T00:49:34.962Z,99.99
2022-10-28T00:50:34.931Z,99.99
2022-10-28T00:51:34.860Z,99.99
2022-10-28T00:52:34.808Z,99.99
2022-10-28T00:53:34.754Z,99.99
2022-10-28T00:54:34.707Z,99.99
2022-10-28T00:55:34.671Z,99.99
2022-10-28T00:56:34.602Z,99.99
2022-10-28T00:57:34.551Z,99.99
2022-10-28T00:58:34.502Z,99.99
2022-10-28T00:59:34.449Z,99.99
2022-10-28T01:00:34.421Z,99.99
2022-10-28T01:01:34.495Z,99.99
2022-10-28T01:02:34.340Z,99.99
2022-10-28T01:03:34.244Z,99.99
2022-10-28T01:04:34.190Z,99.99
2022-10-28T01:05:34.165Z,99.99
2022-10-28T01:06:34.090Z,99.99
2022-10-28T01:07:34.036Z,99.99
2022-10-28T01:08:33.986Z,99.99
2022-10-28T01:09:33.942Z,99.99
2022-10-28T01:10:33.883Z,99.99
2022-10-28T01:11:33.863Z,99.99
2022-10-28T01:12:33.779Z,99.99
2022-10-28T01:13:33.729Z,99.99
2022-10-28T01:14:33.677Z,99.99
2022-10-28T01:15:33.623Z,99.99
2022-10-28T01:16:33.574Z,99.99
2022-10-28T01:17:33.546Z,99.99
2022-10-28T01:18:33.475Z,99.99
2022-10-28T01:19:33.418Z,99.99
2022-10-28T01:20:36.191Z,99.99
2022-10-28T01:21:33.319Z,99.99
2022-10-28T01:22:33.368Z,99.99
2022-10-28T01:23:33.238Z,99.99
2022-10-28T01:24:33.162Z,99.99
2022-10-28T01:25:33.110Z,99.99
2022-10-28T01:26:33.057Z,99.99
2022-10-28T01:27:33.008Z,99.99
2022-10-28T01:28:32.956Z,99.99
2022-10-28T01:29:32.928Z,99.99
2022-10-28T01:30:32.855Z,99.99
2022-10-28T01:31:32.807Z,99.99
2022-10-28T01:32:32.752Z,99.99
2022-10-28T01:33:32.697Z,99.99
2022-10-28T01:34:32.646Z,99.99
2022-10-28T01:35:32.637Z,99.99
2022-10-28T01:36:32.540Z,99.99
2022-10-28T01:37:32.489Z,99.99
2022-10-28T01:38:32.437Z,99.99
2022-10-28T01:39:32.386Z,99.99
2022-10-28T01:40:32.357Z,99.99
2022-10-28T01:41:32.286Z,99.99
2022-10-28T01:42:32.234Z,99.99
2022-10-28T01:43:32.180Z,99.99
2022-10-28T01:44:32.130Z,99.99
2022-10-28T01:45:32.077Z,99.99
2022-10-28T01:46:32.044Z,99.99
2022-10-28T01:47:31.970Z,99.99
2022-10-28T01:48:32.002Z,99.99
2022-10-28T01:49:31.874Z,99.99
2022-10-28T01:50:31.816Z,99.99
2022-10-28T01:51:31.789Z,99.99
2022-10-28T01:52:31.715Z,99.99
2022-10-28T01:53:31.661Z,99.99
2022-10-28T01:54:31.620Z,99.99
2022-10-28T01:55:31.559Z,99.99
2022-10-28T01:56:31.508Z,99.99
2022-10-28T01:57:31.474Z,99.99
2022-10-28T01:58:31.402Z,99.99
2022-10-28T01:59:31.352Z,99.99
2022-10-28T02:00:31.370Z,99.99
2022-10-28T02:01:31.425Z,99.99
2022-10-28T02:02:31.214Z,99.99
2022-10-28T02:03:31.145Z,99.99
2022-10-28T02:04:31.095Z,99.99
2022-10-28T02:05:31.042Z,99.99
2022-10-28T02:06:30.990Z,99.99
2022-10-28T02:07:30.965Z,99.99
2022-10-28T02:08:30.883Z,99.99
2022-10-28T02:09:30.834Z,99.99
2022-10-28T02:10:30.782Z,99.99
2022-10-28T02:11:30.731Z,99.99
2022-10-28T02:12:30.677Z,99.99
2022-10-28T02:13:30.651Z,99.99
2022-10-28T02:14:30.575Z,99.99
2022-10-28T02:15:30.523Z,99.99
2022-10-28T02:16:30.475Z,99.99
2022-10-28T02:17:30.419Z,99.99
2022-10-28T02:18:30.370Z,99.99
2022-10-28T02:19:30.340Z,99.99
2022-10-28T02:20:30.264Z,99.99
2022-10-28T02:21:30.212Z,99.99
2022-10-28T02:22:30.162Z,99.99
2022-10-28T02:23:30.105Z,99.99
2022-10-28T02:24:30.056Z,99.99
2022-10-28T02:25:30.023Z,99.99
2022-10-28T02:26:29.954Z,99.99
2022-10-28T02:27:29.902Z,99.99
2022-10-28T02:28:29.851Z,99.99
2022-10-28T02:29:29.801Z,99.99
2022-10-28T02:30:29.769Z,99.99
2022-10-28T02:31:29.694Z,99.99
2022-10-28T02:32:29.648Z,99.99
2022-10-28T02:33:29.589Z,99.99
2022-10-28T02:34:29.548Z,99.99
2022-10-28T02:35:29.491Z,99.99
2022-10-28T02:36:29.466Z,99.99
2022-10-28T02:37:29.384Z,99.99
2022-10-28T02:38:29.333Z,99.99
2022-10-28T02:39:29.289Z,99.99
2022-10-28T02:40:29.239Z,99.99
2022-10-28T02:41:29.196Z,99.99
2022-10-28T02:42:29.120Z,99.99
2022-10-28T02:43:29.072Z,99.99
2022-10-28T02:44:29.024Z,99.99
2022-10-28T02:45:28.969Z,99.99
2022-10-28T02:46:28.938Z,99.99
2022-10-28T02:47:28.861Z,99.99
2022-10-28T02:48:28.811Z,99.99
2022-10-28T02:49:28.757Z,99.99
2022-10-28T02:50:28.706Z,99.99
2022-10-28T02:51:28.653Z,99.99
2022-10-28T02:52:28.628Z,99.99
2022-10-28T02:53:28.552Z,99.99
2022-10-28T02:54:28.498Z,99.99
2022-10-28T02:55:28.446Z,99.99
2022-10-28T02:56:28.395Z,99.99
2022-10-28T02:57:28.343Z,99.99
2022-10-28T02:58:28.320Z,99.99
2022-10-28T02:59:28.234Z,99.99
2022-10-28T03:00:28.186Z,99.99
2022-10-28T03:01:28.263Z,99.99
2022-10-28T03:02:28.082Z,99.99
2022-10-28T03:03:28.040Z,99.99
2022-10-28T03:04:27.995Z,99.99
2022-10-28T03:05:27.927Z,99.99
2022-10-28T03:06:27.876Z,99.99
2022-10-28T03:07:27.821Z,99.99
2022-10-28T03:08:27.768Z,99.99
2022-10-28T03:09:27.750Z,99.99
2022-10-28T03:10:27.665Z,99.99
2022-10-28T03:11:27.613Z,99.99
2022-10-28T03:12:27.561Z,99.99
2022-10-28T03:13:27.509Z,99.99
2022-10-28T03:14:27.463Z,99.99
2022-10-28T03:15:27.437Z,99.99
2022-10-28T03:16:27.353Z,99.99
2022-10-28T03:17:27.302Z,99.99
2022-10-28T03:18:27.251Z,99.99
2022-10-28T03:19:27.198Z,99.99
2022-10-28T03:20:27.145Z,99.99
2022-10-28T03:21:27.111Z,99.99
2022-10-28T03:22:27.041Z,99.99
2022-10-28T03:23:26.986Z,99.99
2022-10-28T03:24:26.946Z,99.99
2022-10-28T03:25:26.884Z,99.99
2022-10-28T03:26:26.851Z,99.99
2022-10-28T03:27:26.779Z,99.99
2022-10-28T03:28:26.758Z,99.99
2022-10-28T03:29:26.677Z,99.99
2022-10-28T03:30:26.626Z,99.99
2022-10-28T03:31:26.587Z,99.99
2022-10-28T03:32:26.525Z,99.99
2022-10-28T03:33:26.470Z,99.99
2022-10-28T03:34:26.417Z,99.99
2022-10-28T03:35:26.381Z,99.99
2022-10-28T03:36:26.312Z,99.99
2022-10-28T03:37:26.260Z,99.99
2022-10-28T03:38:26.222Z,99.99
2022-10-28T03:39:26.157Z,99.99
2022-10-28T03:40:35.608Z,99.99
2022-10-28T03:41:26.105Z,99.99
2022-10-28T03:42:26.034Z,99.99
2022-10-28T03:43:25.982Z,99.99
2022-10-28T03:44:25.929Z,99.99
2022-10-28T03:45:25.935Z,99.99
2022-10-28T03:46:25.857Z,99.99
2022-10-28T03:47:25.777Z,99.99
2022-10-28T03:48:25.724Z,99.99
2022-10-28T03:49:25.668Z,99.99
2022-10-28T03:50:25.618Z,99.99
2022-10-28T03:51:25.560Z,99.99
2022-10-28T03:52:25.512Z,99.99
2022-10-28T03:53:29.015Z,99.99
2022-10-28T03:54:25.406Z,99.99
2022-10-28T03:55:25.336Z,99.99
2022-10-28T03:56:25.321Z,99.99
2022-10-28T03:57:25.264Z,99.99
2022-10-28T03:58:25.197Z,99.99
2022-10-28T03:59:26.613Z,99.99
2022-10-28T04:00:25.125Z,99.99
2022-10-28T04:01:25.160Z,99.99
2022-10-28T04:02:25.063Z,99.99
2022-10-28T04:03:24.961Z,99.99
2022-10-28T04:04:28.429Z,99.99
2022-10-28T04:05:24.842Z,99.99
2022-10-28T04:06:24.770Z,99.99
2022-10-28T04:07:24.758Z,99.99
2022-10-28T04:08:24.675Z,99.99
2022-10-28T04:09:24.629Z,99.99
2022-10-28T04:10:24.564Z,99.99
2022-10-28T04:11:24.550Z,99.99
2022-10-28T04:12:24.493Z,99.99
2022-10-28T04:13:24.430Z,99.99
2022-10-28T04:14:24.399Z,99.99
2022-10-28T04:15:24.318Z,99.99
2022-10-28T04:16:24.274Z,99.99
2022-10-28T04:17:24.238Z,99.99
2022-10-28T04:18:24.151Z,99.99
2022-10-28T04:19:24.106Z,99.99
2022-10-28T04:20:24.098Z,99.99
2022-10-28T04:21:24.042Z,99.99
2022-10-28T04:22:23.981Z,99.99
2022-10-28T04:23:23.941Z,99.99
2022-10-28T04:24:23.873Z,99.99
2022-10-28T04:25:23.817Z,99.99
2022-10-28T04:26:23.766Z,99.99
2022-10-28T04:27:23.841Z,99.99
2022-10-28T04:28:23.716Z,99.99
2022-10-28T04:29:23.646Z,99.99
2022-10-28T04:30:23.717Z,99.99
2022-10-28T04:31:25.520Z,99.99
2022-10-28T04:32:23.537Z,99.99
2022-10-28T04:33:23.508Z,99.99
2022-10-28T04:34:24.777Z,99.99
2022-10-28T04:35:25.045Z,99.99
2022-10-28T04:36:24.628Z,99.99
2022-10-28T04:37:24.123Z,99.99
2022-10-28T04:38:29.122Z,99.99
2022-10-28T04:39:23.419Z,99.99
2022-10-28T04:40:23.378Z,99.99
2022-10-28T04:41:23.119Z,99.99
2022-10-28T04:42:23.349Z,99.99
2022-10-28T04:43:23.057Z,99.99
2022-10-28T04:44:22.890Z,99.99
2022-10-28T04:45:22.881Z,99.99
2022-10-28T04:46:22.973Z,99.99
2022-10-28T04:47:22.981Z,99.99
2022-10-28T04:48:23.238Z,99.99
2022-10-28T04:49:22.727Z,99.99
2022-10-28T04:50:23.103Z,99.99
2022-10-28T04:51:22.454Z,99.99
2022-10-28T04:52:22.407Z,99.99
2022-10-28T04:53:22.375Z,99.99
2022-10-28T04:54:22.332Z,99.99
2022-10-28T04:55:22.267Z,99.99
2022-10-28T04:56:22.223Z,99.99
2022-10-28T04:57:22.171Z,99.99
2022-10-28T04:58:22.139Z,99.99
2022-10-28T04:59:22.058Z,99.99
2022-10-28T05:00:21.986Z,99.99
2022-10-28T05:01:22.034Z,99.99
2022-10-28T05:02:22.200Z,99.99
2022-10-28T05:03:21.872Z,99.99
2022-10-28T05:04:21.856Z,99.99
2022-10-28T05:05:21.740Z,99.99
2022-10-28T05:06:21.682Z,99.99
2022-10-28T05:07:23.553Z,99.99
2022-10-28T05:08:21.581Z,99.99
2022-10-28T05:09:21.556Z,99.99
2022-10-28T05:10:21.472Z,99.99
2022-10-28T05:11:21.460Z,99.99
2022-10-28T05:12:21.359Z,99.99
2022-10-28T05:13:21.358Z,99.99
2022-10-28T05:14:21.457Z,99.99
2022-10-28T05:15:21.217Z,99.99
2022-10-28T05:16:21.155Z,99.99
2022-10-28T05:17:21.121Z,99.99
2022-10-28T05:18:21.062Z,99.99
2022-10-28T05:19:21.034Z,99.99
2022-10-28T05:20:20.936Z,99.99
2022-10-28T05:21:20.891Z,99.99
2022-10-28T05:22:20.857Z,99.99
2022-10-28T05:23:20.826Z,99.99
2022-10-28T05:24:20.820Z,99.99
2022-10-28T05:25:20.699Z,99.99
2022-10-28T05:26:20.627Z,99.99
2022-10-28T05:27:20.678Z,99.99
2022-10-28T05:28:20.558Z,99.99
2022-10-28T05:29:20.485Z,99.99
2022-10-28T05:30:20.435Z,99.99
2022-10-28T05:31:20.435Z,99.99
2022-10-28T05:32:20.333Z,99.99
2022-10-28T05:33:20.262Z,99.99
2022-10-28T05:34:20.236Z,99.99
2022-10-28T05:35:20.178Z,99.99
2022-10-28T05:36:20.157Z,99.99
2022-10-28T05:37:20.111Z,99.99
2022-10-28T05:38:20.016Z,99.99
2022-10-28T05:39:19.999Z,99.99
2022-10-28T05:40:19.951Z,99.99
2022-10-28T05:41:20.735Z,99.99
2022-10-28T05:42:19.918Z,99.99
2022-10-28T05:43:19.784Z,99.99
2022-10-28T05:44:19.699Z,99.99
2022-10-28T05:45:19.776Z,99.99
2022-10-28T05:46:19.610Z,99.99
2022-10-28T05:47:19.584Z,99.99
2022-10-28T05:48:19.537Z,99.99
2022-10-28T05:49:19.456Z,99.99
2022-10-28T05:50:19.390Z,99.99
2022-10-28T05:51:19.341Z,99.99
2022-10-28T05:52:19.297Z,99.99
2022-10-28T05:53:19.247Z,99.99
2022-10-28T05:54:19.199Z,99.99
2022-10-28T05:55:19.167Z,99.99
2022-10-28T05:56:19.197Z,99.99
2022-10-28T05:57:19.058Z,99.99
2022-10-28T05:58:18.998Z,99.99
2022-10-28T05:59:18.940Z,99.99
2022-10-28T06:00:18.887Z,99.99
2022-10-28T06:01:18.882Z,99.99
2022-10-28T06:02:18.837Z,99.99
2022-10-28T06:03:18.751Z,99.99
2022-10-28T06:04:18.776Z,99.99
2022-10-28T06:05:18.623Z,99.99
2022-10-28T06:06:18.568Z,99.99
2022-10-28T06:07:18.551Z,99.99
2022-10-28T06:08:18.490Z,99.99
2022-10-28T06:09:18.434Z,99.99
2022-10-28T06:10:18.377Z,99.99
2022-10-28T06:11:16.833Z,99.99
2022-10-28T06:12:16.776Z,99.99
2022-10-28T06:13:16.672Z,99.99
2022-10-28T06:14:16.643Z,99.99
2022-10-28T06:15:16.572Z,99.99
2022-10-28T06:16:16.547Z,99.99
2022-10-28T06:17:16.505Z,99.99
2022-10-28T06:18:18.858Z,99.99
2022-10-28T06:19:16.384Z,99.99
2022-10-28T06:20:16.346Z,99.99
2022-10-28T06:21:16.305Z,99.99
2022-10-28T06:22:16.288Z,99.99
2022-10-28T06:23:16.196Z,99.99
2022-10-28T06:24:16.117Z,99.99
2022-10-28T06:25:16.085Z,99.99
2022-10-28T06:26:16.028Z,99.99
2022-10-28T06:27:16.051Z,99.99
2022-10-28T06:28:15.959Z,99.99
2022-10-28T06:29:15.886Z,99.99
2022-10-28T06:30:15.846Z,99.99
2022-10-28T06:31:15.812Z,99.99
2022-10-28T06:32:15.748Z,99.99
2022-10-28T06:33:15.710Z,99.99
2022-10-28T06:34:15.660Z,99.99
2022-10-28T06:35:15.619Z,99.99
2022-10-28T06:36:15.540Z,99.99
2022-10-28T06:37:15.492Z,99.99
2022-10-28T06:38:15.450Z,99.99
2022-10-28T06:39:15.491Z,99.99
2022-10-28T06:40:15.334Z,99.99
2022-10-28T06:41:15.311Z,99.99
2022-10-28T06:42:15.252Z,99.99
2022-10-28T06:43:15.168Z,99.99
2022-10-28T06:44:15.178Z,99.99
2022-10-28T06:45:15.085Z,99.99
2022-10-28T06:46:15.033Z,99.99
2022-10-28T06:47:16.502Z,99.99
2022-10-28T06:48:16.436Z,99.99
2022-10-28T06:49:16.432Z,99.99
2022-10-28T06:50:16.329Z,99.99
2022-10-28T06:51:16.303Z,99.99
2022-10-28T06:52:16.248Z,99.99
2022-10-28T06:53:16.225Z,99.99
2022-10-28T06:54:16.184Z,99.99
2022-10-28T06:55:16.092Z,99.99
2022-10-28T06:56:16.042Z,99.99
2022-10-28T06:57:16.007Z,99.99
2022-10-28T06:58:15.971Z,99.99
2022-10-28T06:59:15.918Z,99.99
2022-10-28T07:00:15.904Z,99.99
2022-10-28T07:01:15.850Z,99.99
2022-10-28T07:02:15.882Z,99.99
2022-10-28T07:03:15.711Z,99.99
2022-10-28T07:04:15.622Z,99.99
2022-10-28T07:05:15.590Z,99.99
2022-10-28T07:06:15.733Z,99.99
2022-10-28T07:07:15.517Z,99.99
2022-10-28T07:08:15.447Z,99.99
2022-10-28T07:09:15.395Z,99.99
2022-10-28T07:10:15.412Z,99.99
2022-10-28T07:11:15.286Z,99.99
2022-10-28T07:12:15.292Z,99.99
2022-10-28T07:13:15.182Z,99.99
2022-10-28T07:14:15.140Z,99.99
2022-10-28T07:15:15.083Z,99.99
2022-10-28T07:16:15.035Z,99.99
2022-10-28T07:17:15.014Z,99.99
2022-10-28T07:18:14.933Z,99.99
2022-10-28T07:19:17.923Z,99.99
2022-10-28T07:20:14.834Z,99.99
2022-10-28T07:21:14.793Z,99.99
2022-10-28T07:22:14.758Z,99.99
2022-10-28T07:23:14.752Z,99.99
2022-10-28T07:24:14.662Z,99.99
2022-10-28T07:25:14.593Z,99.99
2022-10-28T07:26:14.542Z,99.99
2022-10-28T07:27:14.492Z,99.99
2022-10-28T07:28:14.439Z,99.99
2022-10-28T07:29:14.404Z,99.99
2022-10-28T07:30:14.343Z,99.99
2022-10-28T07:31:14.335Z,99.99
2022-10-28T07:32:14.250Z,99.99
2022-10-28T07:33:14.226Z,99.99
2022-10-28T07:34:14.123Z,99.99
2022-10-28T07:35:14.095Z,99.99
2022-10-28T07:36:14.039Z,99.99
2022-10-28T07:37:14.023Z,99.99
2022-10-28T07:38:13.958Z,99.99
2022-10-28T07:39:13.921Z,99.99
2022-10-28T07:40:13.831Z,99.99
2022-10-28T07:41:13.806Z,99.99
2022-10-28T07:42:13.792Z,99.99
2022-10-28T07:43:13.705Z,99.99
2022-10-28T07:44:13.679Z,99.99
2022-10-28T07:45:13.601Z,99.99
2022-10-28T07:46:13.580Z,99.99
2022-10-28T07:47:13.537Z,99.99
2022-10-28T07:48:13.470Z,99.99
2022-10-28T07:49:13.450Z,99.99
2022-10-28T07:50:13.398Z,99.99
2022-10-28T07:51:13.321Z,99.99
2022-10-28T07:52:13.293Z,99.99
2022-10-28T07:53:13.250Z,99.99
2022-10-28T07:54:13.188Z,99.99
2022-10-28T07:55:13.133Z,99.11
2022-10-28T07:56:13.200Z,97.86
2022-10-28T07:57:13.056Z,96.94
2022-10-28T07:58:12.982Z,96.08
2022-10-28T07:59:12.956Z,96.12
2022-10-28T08:00:12.898Z,95.26
2022-10-28T08:01:12.977Z,94.68
2022-10-28T08:02:12.853Z,93.91
2022-10-28T08:03:12.752Z,93.91
2022-10-28T08:04:12.713Z,93.91
2022-10-28T08:05:12.672Z,92.76
2022-10-28T08:06:12.651Z,93.04
2022-10-28T08:07:12.565Z,91.60
2022-10-28T08:08:12.516Z,91.55
2022-10-28T08:09:12.486Z,91.65
2022-10-28T08:10:12.473Z,92.32
2022-10-28T08:11:12.519Z,92.37
2022-10-28T08:12:12.345Z,91.79
2022-10-28T08:13:12.297Z,91.79
2022-10-28T08:14:12.255Z,91.55
2022-10-28T08:15:12.199Z,90.58
2022-10-28T08:16:12.183Z,90.44
2022-10-28T08:17:12.150Z,90.05
2022-10-28T08:18:12.080Z,88.36
2022-10-28T08:19:12.033Z,87.78
2022-10-28T08:20:12.005Z,87.40
2022-10-28T08:21:11.947Z,87.53
2022-10-28T08:22:11.940Z,87.24
2022-10-28T08:23:11.859Z,86.96
2022-10-28T08:24:11.842Z,87.05
2022-10-28T08:25:11.787Z,87.00
2022-10-28T08:26:11.745Z,86.22
2022-10-28T08:27:11.707Z,85.99
2022-10-28T08:28:11.690Z,86.08
2022-10-28T08:29:11.617Z,86.18
2022-10-28T08:30:11.576Z,86.57
2022-10-28T08:31:11.550Z,86.76
2022-10-28T08:32:11.505Z,87.68
2022-10-28T08:33:11.514Z,87.97
2022-10-28T08:34:11.525Z,87.74
2022-10-28T08:35:11.374Z,88.99
2022-10-28T08:36:11.320Z,89.09
2022-10-28T08:37:11.416Z,89.09
2022-10-28T08:38:11.257Z,88.17
2022-10-28T08:39:11.242Z,88.07
2022-10-28T08:40:11.173Z,87.49
2022-10-28T08:41:11.136Z,87.15
2022-10-28T08:42:11.098Z,85.55
2022-10-28T08:43:11.056Z,84.30
2022-10-28T08:44:11.051Z,84.78
2022-10-28T08:45:15.459Z,84.14
2022-10-28T08:46:10.943Z,83.85
2022-10-28T08:47:10.908Z,84.00
2022-10-28T08:48:10.857Z,83.96
2022-10-28T08:49:10.817Z,84.43
2022-10-28T08:50:10.806Z,82.45
2022-10-28T08:51:10.713Z,81.87
2022-10-28T08:52:10.697Z,81.87
2022-10-28T08:53:10.655Z,81.48
2022-10-28T08:54:10.593Z,82.06
2022-10-28T08:55:10.660Z,82.79
2022-10-28T08:56:10.540Z,83.14
2022-10-28T08:57:12.579Z,84.78
2022-10-28T08:58:10.431Z,84.88
2022-10-28T08:59:10.401Z,85.45
2022-10-28T09:00:10.415Z,84.83
2022-10-28T09:01:10.429Z,84.83
2022-10-28T09:02:10.283Z,85.45
2022-10-28T09:03:10.255Z,84.39
2022-10-28T09:04:10.279Z,84.78
2022-10-28T09:05:10.184Z,84.39
2022-10-28T09:06:10.128Z,83.75
2022-10-28T09:07:10.086Z,83.08
2022-10-28T09:08:10.042Z,83.72
2022-10-28T09:09:10.001Z,84.00
2022-10-28T09:10:10.031Z,84.16
2022-10-28T09:11:09.925Z,84.54
2022-10-28T09:12:09.888Z,84.83
2022-10-28T09:13:09.836Z,84.48
2022-10-28T09:14:09.824Z,83.91
2022-10-28T09:15:09.802Z,83.31
2022-10-28T09:16:12.430Z,81.56
2022-10-28T09:17:09.690Z,79.82
2022-10-28T09:18:09.625Z,79.76
2022-10-28T09:19:09.601Z,78.34
2022-10-28T09:20:09.570Z,78.25
2022-10-28T09:21:09.553Z,77.67
2022-10-28T09:22:09.504Z,78.00
2022-10-28T09:23:09.461Z,77.12
2022-10-28T09:24:09.412Z,77.65
2022-10-28T09:25:09.390Z,77.01
2022-10-28T09:26:09.323Z,75.40
2022-10-28T09:27:09.318Z,74.04
2022-10-28T09:28:09.266Z,73.39
2022-10-28T09:29:09.194Z,73.88
2022-10-28T09:30:09.260Z,72.91
2022-10-28T09:31:09.110Z,73.00
2022-10-28T09:32:09.154Z,73.71
2022-10-28T09:33:09.056Z,74.19
2022-10-28T09:34:09.025Z,74.06
2022-10-28T09:35:08.986Z,75.09
2022-10-28T09:36:08.962Z,75.48
2022-10-28T09:37:08.908Z,76.66
2022-10-28T09:38:10.240Z,77.73
2022-10-28T09:39:08.856Z,77.63
2022-10-28T09:40:08.782Z,78.25
2022-10-28T09:41:08.730Z,76.68
2022-10-28T09:42:08.718Z,75.16
2022-10-28T09:43:08.642Z,75.04
2022-10-28T09:44:08.651Z,73.97
2022-10-28T09:45:08.586Z,73.33
2022-10-28T09:46:08.550Z,72.09
2022-10-28T09:47:08.533Z,73.61
2022-10-28T09:48:08.463Z,73.55
2022-10-28T09:49:08.421Z,72.64
2022-10-28T09:50:08.387Z,73.80
2022-10-28T09:51:08.353Z,72.58
2022-10-28T09:52:08.338Z,72.42
2022-10-28T09:53:08.263Z,70.97
2022-10-28T09:54:08.223Z,70.73
2022-10-28T09:55:08.189Z,70.83
2022-10-28T09:57:08.124Z,72.16
2022-10-28T09:58:08.100Z,71.77
2022-10-28T09:59:08.031Z,71.77
2022-10-28T10:00:08.019Z,71.19
2022-10-28T10:01:07.942Z,71.73
2022-10-28T10:02:08.051Z,72.09
2022-10-28T10:03:07.864Z,72.71
2022-10-28T10:04:07.825Z,72.45
2022-10-28T10:05:07.780Z,71.38
2022-10-28T10:06:07.741Z,70.90
2022-10-28T10:07:07.723Z,72.31
2022-10-28T10:08:07.649Z,73.32
2022-10-28T10:09:07.743Z,71.80
2022-10-28T10:10:07.608Z,71.55
2022-10-28T10:11:07.541Z,70.87
2022-10-28T10:12:07.498Z,70.39
2022-10-28T10:13:07.478Z,71.36
2022-10-28T10:14:07.422Z,70.61
2022-10-28T10:15:07.375Z,70.61
2022-10-28T10:16:07.346Z,71.36
2022-10-28T10:17:07.334Z,71.19
2022-10-28T10:18:07.259Z,72.22
2022-10-28T10:19:07.240Z,72.67
2022-10-28T10:20:07.168Z,74.32
2022-10-28T10:21:07.111Z,74.32
2022-10-28T10:22:07.091Z,72.92
2022-10-28T10:23:07.060Z,73.21
2022-10-28T10:24:07.016Z,74.28
2022-10-28T10:25:06.995Z,73.49
2022-10-28T10:26:09.683Z,77.38
2022-10-28T10:27:06.904Z,78.41
2022-10-28T10:28:06.847Z,80.10
2022-10-28T10:29:06.772Z,81.35
2022-10-28T10:30:06.773Z,81.55
2022-10-28T10:31:06.755Z,81.07
2022-10-28T10:32:06.682Z,81.98
2022-10-28T10:33:06.621Z,82.03
2022-10-28T10:34:06.603Z,82.18
2022-10-28T10:35:06.520Z,84.22
2022-10-28T10:36:06.513Z,85.77
2022-10-28T10:37:06.464Z,86.35
2022-10-28T10:38:06.385Z,87.12
2022-10-28T10:39:06.368Z,87.12
2022-10-28T10:40:06.326Z,87.26
2022-10-28T10:41:06.294Z,88.42
2022-10-28T10:42:06.257Z,87.74
2022-10-28T10:43:13.779Z,87.84
2022-10-28T10:45:06.221Z,88.61
2022-10-28T10:46:06.045Z,87.70
2022-10-28T10:47:06.536Z,87.54
2022-10-28T10:48:05.982Z,86.24
2022-10-28T10:49:05.920Z,85.56
2022-10-28T10:50:05.873Z,85.12
2022-10-28T10:51:05.848Z,84.83
2022-10-28T10:52:05.786Z,84.68
2022-10-28T10:53:05.724Z,83.52
2022-10-28T10:54:05.667Z,83.27
2022-10-28T10:55:05.638Z,82.50
2022-10-28T10:56:05.624Z,82.79
2022-10-28T10:57:05.577Z,82.21
2022-10-28T10:58:05.497Z,81.40
2022-10-28T10:59:05.459Z,81.88
2022-10-28T11:00:05.394Z,82.56
2022-10-28T11:01:05.389Z,82.17
2022-10-28T11:02:05.466Z,82.71
2022-10-28T11:03:05.311Z,84.06
2022-10-28T11:04:05.219Z,83.62
2022-10-28T11:05:05.166Z,83.14
2022-10-28T11:06:22.491Z,82.65
2022-10-28T11:07:05.104Z,82.11
2022-10-28T11:08:05.037Z,81.67
2022-10-28T11:09:05.093Z,80.86
2022-10-28T11:10:04.940Z,80.95
2022-10-28T11:11:04.927Z,80.91
2022-10-28T11:12:05.648Z,82.03
2022-10-28T11:13:04.842Z,82.61
2022-10-28T11:14:04.772Z,84.25
2022-10-28T11:15:04.764Z,83.52
2022-10-28T11:16:04.704Z,82.75
2022-10-28T11:17:04.653Z,83.62
2022-10-28T11:18:04.598Z,82.94
2022-10-28T11:19:04.595Z,82.31
2022-10-28T11:20:04.573Z,82.31
2022-10-28T11:21:04.552Z,81.49
2022-10-28T11:22:04.453Z,81.98
2022-10-28T11:23:06.233Z,82.65
2022-10-28T11:24:04.312Z,81.98
2022-10-28T11:25:04.302Z,81.98
2022-10-28T11:26:04.223Z,82.36
2022-10-28T11:27:04.217Z,81.84
2022-10-28T11:28:04.666Z,82.23
2022-10-28T11:29:04.120Z,82.32
2022-10-28T11:30:04.050Z,81.07
2022-10-28T11:31:04.047Z,79.72
2022-10-28T11:32:03.999Z,80.78
2022-10-28T11:33:28.339Z,80.58
2022-10-28T11:34:03.886Z,80.62
2022-10-28T11:35:03.836Z,80.53
2022-10-28T11:36:03.780Z,81.40
2022-10-28T11:37:03.763Z,81.11
2022-10-28T11:38:03.706Z,80.53
2022-10-28T11:39:03.688Z,80.43
2022-10-28T11:40:03.613Z,81.01
2022-10-28T11:41:03.598Z,80.76
2022-10-28T11:42:03.522Z,79.27
2022-10-28T11:43:03.476Z,78.44
2022-10-28T11:44:05.411Z,78.69
2022-10-28T11:45:03.370Z,78.31
2022-10-28T11:46:03.361Z,78.41
2022-10-28T11:47:05.273Z,78.92
2022-10-28T11:48:03.304Z,79.74
2022-10-28T11:49:03.192Z,77.61
2022-10-28T11:50:03.188Z,76.16
2022-10-28T11:51:03.125Z,77.32
2022-10-28T11:52:03.077Z,78.81
2022-10-28T11:53:03.036Z,78.81
2022-10-28T11:54:02.975Z,78.03
2022-10-28T11:55:02.928Z,77.36
2022-10-28T11:56:02.887Z,76.74
2022-10-28T11:57:02.852Z,76.70
2022-10-28T11:58:02.949Z,77.28
2022-10-28T11:59:02.777Z,78.15
2022-10-28T12:00:02.693Z,77.57
2022-10-28T12:01:02.657Z,77.38
2022-10-28T12:02:02.787Z,77.38
2022-10-28T12:03:02.928Z,77.57
2022-10-28T12:04:02.592Z,77.83
2022-10-28T12:05:02.479Z,78.02
2022-10-28T12:06:02.432Z,78.69
2022-10-28T12:07:02.392Z,78.69
2022-10-28T12:08:02.370Z,78.79
2022-10-28T12:09:02.367Z,78.69
2022-10-28T12:10:02.237Z,78.44
2022-10-28T12:11:02.207Z,77.53
2022-10-28T12:12:02.169Z,77.48
2022-10-28T12:13:02.162Z,78.06
2022-10-28T12:15:02.034Z,77.38
2022-10-28T12:16:02.041Z,77.96
2022-10-28T12:17:01.957Z,77.83
2022-10-28T12:18:02.036Z,78.21
2022-10-28T12:19:01.845Z,78.50
2022-10-28T12:20:01.896Z,79.24
2022-10-28T12:21:01.789Z,81.20
2022-10-28T12:22:02.243Z,79.72
2022-10-28T12:23:01.678Z,79.72
2022-10-28T12:24:01.602Z,79.72
2022-10-28T12:25:01.664Z,79.91
2022-10-28T12:26:01.524Z,80.58
2022-10-28T12:27:01.500Z,80.00
2022-10-28T12:28:01.501Z,79.72
2022-10-28T12:29:01.447Z,80.10
2022-10-28T12:30:01.343Z,80.05
2022-10-28T12:31:01.283Z,79.47
2022-10-28T12:32:01.266Z,79.91
2022-10-28T12:33:01.204Z,79.43
2022-10-28T12:34:01.189Z,80.39
2022-10-28T12:35:01.123Z,79.43
2022-10-28T12:36:01.060Z,80.10
2022-10-28T12:37:01.052Z,79.49
2022-10-28T12:38:00.995Z,80.00
2022-10-28T12:39:00.954Z,81.07
2022-10-28T12:40:00.900Z,80.49
2022-10-28T12:41:00.885Z,80.87
2022-10-28T12:42:00.808Z,80.49
2022-10-28T12:43:00.826Z,80.74
2022-10-28T12:44:00.740Z,80.74
2022-10-28T12:45:00.655Z,81.70
2022-10-28T12:46:00.638Z,81.99
2022-10-28T12:47:00.585Z,81.80
2022-10-28T12:48:00.666Z,82.38
2022-10-28T12:49:00.487Z,82.18
2022-10-28T12:50:00.455Z,82.57
2022-10-28T12:51:00.372Z,82.42
2022-10-28T12:52:00.365Z,82.42
2022-10-28T12:53:00.285Z,82.71
2022-10-28T12:54:00.241Z,81.93
2022-10-28T12:55:00.298Z,80.68